Terminal Aerodrome Forecast
Issued by NWS Twin Cities, MN

Home | Current Version | Previous Version | Text Only | Print | Product List | Glossary On
Versions: 1 2 3 4 5 6 7 8 9 10 11 12 13 14 15
405
FTUS43 KMPX 131128
TAFSTC
TAF
KSTC 131128Z 1312/1412 VRB02KT P6SM FEW250
     FM131800 15006KT P6SM SCT100 BKN250
     FM140000 14008KT P6SM OVC100
     FM140400 14011KT 2SM -SN BKN025 OVC040=

USA.gov is the U.S. government's official web portal to all federal, state and local government web resources and services.